createdAt,value
2022-10-23T00:01:23.088Z,8.43
2022-10-23T00:03:53.588Z,8.80
2022-10-23T00:06:21.814Z,8.18
2022-10-23T00:08:50.995Z,8.30
2022-10-23T00:11:20.858Z,8.45
2022-10-23T00:13:51.325Z,9.00
2022-10-23T00:16:19.229Z,9.07
2022-10-23T00:18:47.225Z,8.88
2022-10-23T00:21:16.965Z,8.40
2022-10-23T00:23:45.975Z,8.43
2022-10-23T00:26:16.077Z,8.10
2022-10-23T00:28:44.262Z,8.85
2022-10-23T00:31:14.077Z,8.68
2022-10-23T00:33:43.141Z,9.30
2022-10-23T00:36:14.465Z,9.32
2022-10-23T00:38:43.543Z,8.75
2022-10-23T00:41:17.917Z,9.43
2022-10-23T00:43:59.694Z,8.90
2022-10-23T00:46:28.996Z,8.38
2022-10-23T00:48:59.656Z,9.32
2022-10-23T00:51:30.913Z,10.10
2022-10-23T00:54:22.829Z,8.77
2022-10-23T00:56:50.339Z,9.45
2022-10-23T00:59:18.718Z,8.85
2022-10-23T01:01:48.426Z,9.20
2022-10-23T01:04:17.066Z,8.90
2022-10-23T01:06:55.016Z,8.90
2022-10-23T01:09:30.683Z,8.57
2022-10-23T01:12:06.174Z,8.77
2022-10-23T01:14:40.898Z,8.70
2022-10-23T01:17:19.167Z,7.97
2022-10-23T01:19:57.400Z,8.60
2022-10-23T01:22:43.204Z,8.35
2022-10-23T01:25:24.937Z,8.23
2022-10-23T01:27:57.407Z,8.45
2022-10-23T01:30:25.693Z,8.68
2022-10-23T01:32:58.060Z,8.60
2022-10-23T01:35:30.305Z,9.05
2022-10-23T01:38:05.090Z,9.45
2022-10-23T01:40:37.048Z,8.70
2022-10-23T01:43:11.698Z,8.65
2022-10-23T01:45:43.564Z,9.90
2022-10-23T01:48:15.909Z,9.02
2022-10-23T01:50:46.130Z,9.15
2022-10-23T01:53:14.124Z,9.32
2022-10-23T01:55:44.184Z,8.48
2022-10-23T01:58:15.541Z,9.18
2022-10-23T02:00:46.765Z,8.18
2022-10-23T02:03:17.369Z,8.18
2022-10-23T02:05:45.548Z,7.90
2022-10-23T02:08:13.961Z,8.27
2022-10-23T02:10:49.142Z,9.65
2022-10-23T02:13:26.689Z,8.13
2022-10-23T02:16:05.046Z,8.95
2022-10-23T02:18:44.011Z,8.60
2022-10-23T02:21:15.300Z,8.70
2022-10-23T02:23:55.345Z,8.73
2022-10-23T02:26:28.619Z,9.23
2022-10-23T02:29:03.172Z,8.40
2022-10-23T02:31:31.476Z,8.52
2022-10-23T02:33:59.449Z,8.95
2022-10-23T02:36:29.407Z,8.20
2022-10-23T02:38:57.470Z,8.52
2022-10-23T02:41:37.136Z,8.98
2022-10-23T02:44:18.455Z,8.68
2022-10-23T02:46:54.699Z,10.35
2022-10-23T02:49:28.610Z,8.95
2022-10-23T02:52:06.960Z,9.27
2022-10-23T02:55:09.517Z,8.95
2022-10-23T02:57:44.394Z,10.27
2022-10-23T03:00:17.907Z,8.60
2022-10-23T03:02:53.226Z,8.30
2022-10-23T03:05:24.209Z,8.95
2022-10-23T03:07:53.183Z,8.68
2022-10-23T03:10:21.504Z,9.40
2022-10-23T03:12:49.330Z,9.20
2022-10-23T03:15:19.516Z,9.13
2022-10-23T03:17:47.324Z,8.85
2022-10-23T03:20:15.542Z,9.88
2022-10-23T03:22:43.725Z,9.88
2022-10-23T03:25:12.111Z,8.85
2022-10-23T03:27:40.070Z,9.07
2022-10-23T03:30:09.508Z,9.75
2022-10-23T03:32:38.891Z,10.40
2022-10-23T03:35:07.601Z,10.52
2022-10-23T03:37:36.167Z,10.18
2022-10-23T03:40:05.393Z,11.38
2022-10-23T03:42:33.407Z,10.55
2022-10-23T03:45:01.526Z,10.93
2022-10-23T03:47:30.567Z,10.60
2022-10-23T03:50:00.028Z,10.38
2022-10-23T03:52:28.862Z,10.20
2022-10-23T03:54:56.782Z,11.10
2022-10-23T03:57:25.234Z,10.30
2022-10-23T03:59:53.507Z,10.20
2022-10-23T04:02:21.483Z,10.52
2022-10-23T04:04:49.466Z,11.45
2022-10-23T04:07:19.063Z,9.88
2022-10-23T04:09:47.019Z,10.25
2022-10-23T04:12:15.016Z,10.55
2022-10-23T04:14:43.086Z,10.75
2022-10-23T04:17:13.487Z,10.55
2022-10-23T04:19:41.687Z,10.65
2022-10-23T04:22:09.550Z,9.48
2022-10-23T04:24:39.051Z,10.40
2022-10-23T04:27:06.996Z,10.15
2022-10-23T04:29:34.781Z,10.65
2022-10-23T04:32:03.085Z,10.45
2022-10-23T04:34:31.063Z,10.93
2022-10-23T04:36:59.088Z,10.13
2022-10-23T04:39:27.328Z,10.02
2022-10-23T04:41:56.949Z,10.27
2022-10-23T04:44:24.898Z,10.82
2022-10-23T04:46:52.686Z,10.60
2022-10-23T04:49:20.769Z,11.15
2022-10-23T04:51:48.664Z,10.40
2022-10-23T04:54:16.666Z,10.55
2022-10-23T04:56:44.819Z,11.52
2022-10-23T04:59:14.096Z,11.68
2022-10-23T05:01:42.264Z,10.80
2022-10-23T05:04:10.263Z,10.00
2022-10-23T05:06:38.349Z,10.90
2022-10-23T05:09:06.498Z,11.13
2022-10-23T05:11:34.501Z,10.98
2022-10-23T05:14:02.366Z,10.85
2022-10-23T05:16:38.923Z,10.80
2022-10-23T05:19:11.999Z,9.80
2022-10-23T05:21:41.541Z,10.15
2022-10-23T05:24:11.541Z,9.90
2022-10-23T05:26:39.854Z,9.93
2022-10-23T05:29:07.815Z,9.30
2022-10-23T05:31:37.731Z,9.98
2022-10-23T05:34:08.763Z,10.43
2022-10-23T05:36:40.478Z,9.68
2022-10-23T05:39:08.437Z,9.90
2022-10-23T05:41:36.387Z,10.38
2022-10-23T05:44:04.461Z,10.07
2022-10-23T05:46:32.655Z,10.50
2022-10-23T05:49:01.890Z,10.15
2022-10-23T05:51:29.785Z,10.23
2022-10-23T05:53:57.773Z,11.05
2022-10-23T05:56:25.638Z,10.15
2022-10-23T05:58:53.680Z,10.10
2022-10-23T06:01:23.155Z,10.07
2022-10-23T06:03:51.260Z,10.27
2022-10-23T06:06:20.647Z,10.88
2022-10-23T06:08:48.494Z,10.93
2022-10-23T06:11:16.673Z,10.80
2022-10-23T06:13:45.767Z,11.30
2022-10-23T06:16:15.698Z,11.35
2022-10-23T06:18:44.458Z,11.18
2022-10-23T06:21:12.579Z,11.60
2022-10-23T06:23:43.491Z,11.00
2022-10-23T06:26:13.646Z,10.73
2022-10-23T06:28:42.090Z,11.85
2022-10-23T06:31:12.652Z,13.88
2022-10-23T06:33:41.146Z,12.20
2022-10-23T06:36:11.338Z,12.10
2022-10-23T06:38:41.238Z,10.70
2022-10-23T06:41:17.933Z,12.43
2022-10-23T06:43:48.219Z,10.50
2022-10-23T06:46:16.245Z,11.10
2022-10-23T06:48:44.551Z,14.75
2022-10-23T06:51:15.307Z,11.38
2022-10-23T06:53:44.715Z,12.30
2022-10-23T06:56:13.506Z,10.95
2022-10-23T06:58:41.700Z,16.45
2022-10-23T07:01:12.474Z,10.55
2022-10-23T07:03:40.743Z,10.82
2022-10-23T07:06:10.315Z,10.30
2022-10-23T07:08:38.514Z,11.40
2022-10-23T07:11:09.813Z,11.65
2022-10-23T07:13:38.783Z,10.95
2022-10-23T07:16:15.183Z,10.65
2022-10-23T07:18:45.817Z,10.18
2022-10-23T07:21:13.786Z,9.55
2022-10-23T07:23:41.868Z,10.02
2022-10-23T07:26:14.435Z,9.77
2022-10-23T07:28:44.064Z,10.05
2022-10-23T07:31:12.547Z,10.80
2022-10-23T07:33:40.689Z,9.90
2022-10-23T07:36:10.444Z,9.07
2022-10-23T07:38:38.563Z,9.30
2022-10-23T07:41:08.969Z,10.07
2022-10-23T07:43:41.019Z,9.43
2022-10-23T07:46:10.017Z,9.32
2022-10-23T07:48:38.648Z,8.88
2022-10-23T07:51:10.569Z,8.55
2022-10-23T07:53:39.403Z,8.80
2022-10-23T07:56:14.465Z,9.68
2022-10-23T07:58:44.357Z,7.80
2022-10-23T08:01:18.503Z,8.75
2022-10-23T08:03:46.856Z,9.20
2022-10-23T08:06:14.771Z,8.50
2022-10-23T08:08:42.675Z,8.40
2022-10-23T08:11:14.134Z,9.75
2022-10-23T08:13:44.397Z,9.57
2022-10-23T08:16:12.321Z,9.70
2022-10-23T08:18:42.892Z,8.50
2022-10-23T08:21:11.360Z,7.97
2022-10-23T08:23:39.390Z,7.75
2022-10-23T08:26:08.122Z,6.80
2022-10-23T08:28:36.876Z,8.13
2022-10-23T08:31:11.131Z,8.70
2022-10-23T08:33:39.219Z,7.25
2022-10-23T08:36:16.608Z,7.90
2022-10-23T08:38:44.751Z,6.82
2022-10-23T08:41:24.936Z,7.65
2022-10-23T08:43:57.733Z,7.57
2022-10-23T08:46:31.078Z,7.00
2022-10-23T08:49:15.149Z,7.03
2022-10-23T08:51:45.672Z,7.80
2022-10-23T08:54:16.824Z,7.25
2022-10-23T08:56:50.844Z,6.80
2022-10-23T08:59:26.209Z,6.95
2022-10-23T09:02:14.958Z,6.50
2022-10-23T09:04:46.164Z,6.05
2022-10-23T09:07:23.278Z,5.97
2022-10-23T09:10:02.864Z,5.90
2022-10-23T09:12:34.972Z,5.53
2022-10-23T09:15:19.446Z,5.47
2022-10-23T09:17:50.754Z,5.80
2022-10-23T09:20:21.728Z,5.30
2022-10-23T09:22:51.557Z,5.78
2022-10-23T09:25:23.066Z,6.05
2022-10-23T09:27:56.107Z,5.40
2022-10-23T09:30:34.697Z,5.35
2022-10-23T09:33:15.222Z,5.00
2022-10-23T09:35:54.681Z,4.82
2022-10-23T09:38:31.221Z,5.40
2022-10-23T09:41:01.796Z,4.85
2022-10-23T09:43:30.356Z,5.55
2022-10-23T09:46:00.772Z,5.20
2022-10-23T09:48:30.627Z,5.20
2022-10-23T09:51:00.737Z,4.65
2022-10-23T09:53:34.333Z,3.75
2022-10-23T09:56:25.511Z,4.15
2022-10-23T09:58:57.683Z,4.07
2022-10-23T10:01:27.030Z,4.07
2022-10-23T10:03:57.051Z,3.67
2022-10-23T10:06:27.985Z,3.70
2022-10-23T10:08:58.250Z,3.90
2022-10-23T10:11:35.223Z,3.97
2022-10-23T10:14:34.414Z,3.67
2022-10-23T10:17:06.640Z,3.47
2022-10-23T10:19:55.265Z,3.60
2022-10-23T10:22:31.461Z,3.15
2022-10-23T10:25:10.704Z,2.90
2022-10-23T10:27:52.217Z,2.75
2022-10-23T10:30:22.701Z,3.10
2022-10-23T10:32:55.542Z,2.80
2022-10-23T10:35:46.987Z,2.55
2022-10-23T10:38:29.109Z,2.65
2022-10-23T10:41:35.594Z,2.90
2022-10-23T10:44:20.911Z,2.65
2022-10-23T10:46:57.395Z,3.13
2022-10-23T10:49:30.956Z,2.58
2022-10-23T10:52:11.455Z,2.63
2022-10-23T10:54:53.416Z,3.10
2022-10-23T10:57:30.773Z,3.20
2022-10-23T11:00:02.851Z,3.50
2022-10-23T11:02:36.423Z,2.70
2022-10-23T11:05:28.076Z,3.05
2022-10-23T11:08:02.041Z,3.00
2022-10-23T11:10:31.043Z,2.83
2022-10-23T11:12:59.065Z,2.90
2022-10-23T11:15:30.054Z,3.08
2022-10-23T11:18:01.382Z,3.13
2022-10-23T11:20:50.772Z,2.92
2022-10-23T11:23:52.895Z,3.10
2022-10-23T11:26:36.179Z,2.60
2022-10-23T11:29:31.340Z,3.50
2022-10-23T11:32:14.230Z,2.80
2022-10-23T11:35:12.879Z,2.63
2022-10-23T11:37:49.356Z,3.60
2022-10-23T11:40:24.860Z,3.53
2022-10-23T11:42:53.160Z,3.05
2022-10-23T11:45:33.886Z,2.58
2022-10-23T11:48:04.984Z,2.55
2022-10-23T11:50:35.722Z,2.33
2022-10-23T11:53:14.657Z,2.55
2022-10-23T11:56:01.448Z,2.53
2022-10-23T11:58:41.599Z,2.63
2022-10-23T12:01:25.652Z,3.08
2022-10-23T12:03:58.020Z,2.72
2022-10-23T12:06:29.153Z,2.70
2022-10-23T12:09:01.199Z,2.55
2022-10-23T12:11:43.203Z,2.45
2022-10-23T12:14:28.762Z,2.22
2022-10-23T12:16:56.799Z,2.20
2022-10-23T12:19:27.144Z,2.10
2022-10-23T12:21:57.797Z,2.13
2022-10-23T12:24:39.845Z,1.90
2022-10-23T12:27:32.369Z,1.83
2022-10-23T12:30:15.501Z,1.77
2022-10-23T12:33:10.124Z,1.80
2022-10-23T12:35:55.647Z,1.90
2022-10-23T12:38:26.151Z,1.98
2022-10-23T12:40:57.824Z,2.20
2022-10-23T12:43:29.917Z,2.10
2022-10-23T12:46:06.005Z,1.73
2022-10-23T12:48:52.559Z,2.10
2022-10-23T12:51:25.820Z,1.92
2022-10-23T12:53:54.254Z,2.00
2022-10-23T12:56:23.229Z,1.90
2022-10-23T12:58:54.746Z,3.20
2022-10-23T13:01:28.276Z,2.00
2022-10-23T13:04:03.606Z,1.98
2022-10-23T13:06:31.610Z,2.20
2022-10-23T13:09:00.086Z,2.10
2022-10-23T13:11:29.643Z,2.78
2022-10-23T13:13:59.730Z,2.38
2022-10-23T13:16:28.163Z,1.90
2022-10-23T13:18:56.095Z,2.83
2022-10-23T13:21:26.468Z,2.10
2022-10-23T13:23:55.930Z,2.20
2022-10-23T13:26:32.817Z,2.45
2022-10-23T13:29:09.444Z,2.47
2022-10-23T13:31:38.621Z,2.75
2022-10-23T13:34:18.982Z,2.72
2022-10-23T13:37:23.532Z,3.25
2022-10-23T13:40:01.076Z,4.55
2022-10-23T13:42:29.114Z,4.47
2022-10-23T13:44:58.654Z,3.03
2022-10-23T13:47:26.594Z,3.00
2022-10-23T13:49:54.486Z,2.78
2022-10-23T13:52:24.545Z,3.75
2022-10-23T13:54:52.404Z,3.35
2022-10-23T13:57:20.740Z,2.97
2022-10-23T13:59:48.596Z,2.90
2022-10-23T14:02:22.066Z,3.00
2022-10-23T14:04:50.207Z,3.13
2022-10-23T14:07:18.345Z,3.00
2022-10-23T14:09:46.712Z,3.20
2022-10-23T14:12:14.730Z,2.83
2022-10-23T14:14:42.693Z,2.95
2022-10-23T14:17:10.713Z,3.00
2022-10-23T14:19:40.066Z,3.88
2022-10-23T14:22:08.092Z,4.97
2022-10-23T14:24:36.908Z,3.05
2022-10-23T14:27:05.053Z,3.28
2022-10-23T14:29:33.370Z,3.08
2022-10-23T14:32:01.241Z,3.05
2022-10-23T14:34:29.122Z,2.80
2022-10-23T14:37:08.060Z,3.20
2022-10-23T14:39:36.901Z,2.92
2022-10-23T14:42:04.942Z,3.42
2022-10-23T14:44:32.831Z,3.13
2022-10-23T14:47:00.987Z,3.38
2022-10-23T14:49:28.974Z,3.30
2022-10-23T14:51:58.595Z,3.20
2022-10-23T14:54:28.269Z,3.13
2022-10-23T14:56:56.369Z,3.38
2022-10-23T14:59:24.213Z,3.85
2022-10-23T15:04:25.478Z,5.18
2022-10-23T15:06:53.690Z,5.43
2022-10-23T15:09:22.973Z,5.13
2022-10-23T15:11:51.113Z,4.53
2022-10-23T15:14:19.826Z,4.20
2022-10-23T15:16:48.278Z,4.22
2022-10-23T15:19:18.590Z,4.97
2022-10-23T15:21:46.993Z,3.50
2022-10-23T15:24:15.186Z,4.10
2022-10-23T15:26:44.869Z,5.35
2022-10-23T15:29:15.079Z,5.68
2022-10-23T15:31:50.543Z,5.65
2022-10-23T15:34:20.569Z,6.28
2022-10-23T15:36:49.031Z,5.70
2022-10-23T15:39:19.388Z,6.00
2022-10-23T15:41:51.326Z,5.80
2022-10-23T15:44:22.167Z,6.68
2022-10-23T15:46:51.704Z,6.13
2022-10-23T15:49:19.855Z,5.95
2022-10-23T15:51:48.042Z,5.60
2022-10-23T15:54:19.074Z,5.95
2022-10-23T15:56:50.589Z,6.47
2022-10-23T15:59:19.415Z,5.97
2022-10-23T16:01:47.855Z,8.48
2022-10-23T16:04:16.343Z,5.57
2022-10-23T16:06:44.833Z,5.68
2022-10-23T16:09:13.236Z,5.38
2022-10-23T16:11:43.698Z,5.72
2022-10-23T16:14:16.181Z,5.20
2022-10-23T16:16:44.426Z,4.95
2022-10-23T16:19:15.352Z,5.18
2022-10-23T16:21:43.689Z,5.40
2022-10-23T16:24:12.302Z,6.57
2022-10-23T16:26:41.038Z,5.68
2022-10-23T16:29:16.715Z,5.28
2022-10-23T16:31:44.701Z,6.28
2022-10-23T16:34:13.238Z,7.35
2022-10-23T16:36:41.961Z,6.93
2022-10-23T16:39:12.604Z,7.93
2022-10-23T16:41:40.566Z,7.88
2022-10-23T16:44:08.657Z,7.40
2022-10-23T16:46:39.484Z,7.93
2022-10-23T16:49:08.304Z,9.13
2022-10-23T16:51:36.329Z,10.30
2022-10-23T16:54:07.294Z,11.77
2022-10-23T16:56:35.232Z,10.43
2022-10-23T16:59:03.293Z,9.48
2022-10-23T17:01:33.333Z,10.30
2022-10-23T17:04:03.034Z,10.30
2022-10-23T17:06:33.417Z,9.70
2022-10-23T17:09:03.158Z,9.20
2022-10-23T17:11:33.028Z,9.80
2022-10-23T17:14:03.109Z,9.98
2022-10-23T17:16:34.441Z,10.40
2022-10-23T17:19:15.934Z,10.63
2022-10-23T17:21:49.401Z,10.80
2022-10-23T17:24:17.429Z,10.77
2022-10-23T17:26:45.736Z,10.77
2022-10-23T17:29:15.183Z,10.70
2022-10-23T17:31:45.241Z,10.68
2022-10-23T17:34:17.312Z,11.30
2022-10-23T17:36:47.626Z,12.15
2022-10-23T17:39:19.490Z,14.32
2022-10-23T17:41:48.105Z,13.60
2022-10-23T17:44:16.173Z,13.77
2022-10-23T17:46:44.503Z,14.52
2022-10-23T17:49:14.505Z,14.45
2022-10-23T17:51:42.972Z,16.60
2022-10-23T17:54:14.600Z,24.80
2022-10-23T17:56:42.435Z,25.48
2022-10-23T17:59:13.104Z,29.52
2022-10-23T18:01:43.654Z,31.90
2022-10-23T18:04:11.847Z,35.10
2022-10-23T18:06:45.578Z,36.53
2022-10-23T18:09:13.883Z,39.03
2022-10-23T18:11:45.450Z,35.85
2022-10-23T18:14:15.603Z,34.10
2022-10-23T18:16:45.630Z,33.45
2022-10-23T18:19:15.028Z,35.90
2022-10-23T18:21:44.460Z,35.75
2022-10-23T18:24:13.008Z,36.03
2022-10-23T18:26:43.097Z,37.83
2022-10-23T18:29:17.282Z,34.53
2022-10-23T18:31:46.066Z,34.22
2022-10-23T18:34:17.515Z,34.13
2022-10-23T18:36:47.131Z,34.83
2022-10-23T18:39:18.018Z,30.10
2022-10-23T18:41:46.742Z,28.45
2022-10-23T18:44:17.055Z,23.40
2022-10-23T18:46:45.640Z,23.40
2022-10-23T18:49:13.726Z,24.50
2022-10-23T18:51:41.871Z,24.58
2022-10-23T18:54:14.380Z,23.80
2022-10-23T18:56:45.019Z,26.63
2022-10-23T18:59:15.032Z,22.30
2022-10-23T19:01:44.636Z,21.63
2022-10-23T19:04:15.361Z,25.17
2022-10-23T19:06:44.794Z,25.48
2022-10-23T19:09:14.965Z,25.15
2022-10-23T19:11:44.199Z,24.75
2022-10-23T19:14:12.563Z,25.27
2022-10-23T19:16:45.714Z,28.80
2022-10-23T19:19:16.938Z,26.25
2022-10-23T19:21:48.182Z,25.55
2022-10-23T19:24:22.249Z,26.60
2022-10-23T19:26:51.020Z,29.15
2022-10-23T19:29:21.629Z,29.95
2022-10-23T19:31:50.399Z,26.55
2022-10-23T19:34:20.216Z,26.48
2022-10-23T19:36:48.573Z,25.17
2022-10-23T19:39:18.659Z,29.50
2022-10-23T19:41:47.264Z,29.27
2022-10-23T19:44:16.147Z,26.95
2022-10-23T19:46:44.820Z,24.52
2022-10-23T19:49:12.712Z,26.95
2022-10-23T19:51:40.735Z,26.35
2022-10-23T19:54:10.705Z,26.35
2022-10-23T19:56:40.427Z,26.80
2022-10-23T19:59:08.385Z,25.17
2022-10-23T20:01:36.758Z,24.90
2022-10-23T20:04:04.788Z,26.58
2022-10-23T20:06:35.519Z,25.33
2022-10-23T20:09:08.078Z,24.23
2022-10-23T20:11:37.147Z,26.70
2022-10-23T20:14:07.209Z,27.27
2022-10-23T20:16:37.419Z,26.55
2022-10-23T20:19:09.753Z,27.45
2022-10-23T20:21:38.413Z,26.65
2022-10-23T20:24:07.346Z,28.63
2022-10-23T20:26:35.286Z,28.48
2022-10-23T20:29:03.218Z,26.20
2022-10-23T20:31:33.956Z,27.27
2022-10-23T20:34:02.004Z,26.23
2022-10-23T20:36:31.810Z,27.52
2022-10-23T20:39:02.499Z,27.38
2022-10-23T20:41:33.109Z,28.75
2022-10-23T20:44:01.521Z,27.58
2022-10-23T20:46:29.469Z,27.02
2022-10-23T20:48:59.412Z,25.63
2022-10-23T20:51:27.933Z,23.48
2022-10-23T20:53:56.063Z,24.92
2022-10-23T20:56:30.008Z,29.30
2022-10-23T20:58:58.463Z,27.02
2022-10-23T21:01:27.731Z,26.63
2022-10-23T21:03:58.922Z,24.83
2022-10-23T21:06:33.981Z,23.48
2022-10-23T21:11:37.958Z,23.85
2022-10-23T21:14:06.732Z,21.08
2022-10-23T21:16:36.963Z,19.42
2022-10-23T21:19:07.362Z,19.38
2022-10-23T21:21:36.021Z,20.35
2022-10-23T21:24:07.464Z,20.08
2022-10-23T21:26:36.326Z,21.33
2022-10-23T21:29:18.135Z,21.20
2022-10-23T21:31:52.176Z,19.13
2022-10-23T21:34:21.396Z,18.10
2022-10-23T21:37:11.448Z,18.95
2022-10-23T21:39:37.280Z,18.35
2022-10-23T21:42:05.243Z,17.70
2022-10-23T21:44:33.199Z,18.58
2022-10-23T21:47:01.271Z,18.63
2022-10-23T21:49:30.572Z,17.58
2022-10-23T21:51:58.607Z,17.48
2022-10-23T21:54:26.932Z,16.85
2022-10-23T21:56:54.874Z,16.70
2022-10-23T21:59:27.683Z,16.52
2022-10-23T22:01:58.298Z,15.60
2022-10-23T22:04:26.361Z,15.13
2022-10-23T22:06:55.895Z,16.02
2022-10-23T22:09:24.623Z,16.00
2022-10-23T22:11:53.539Z,16.15
2022-10-23T22:14:22.765Z,14.68
2022-10-23T22:16:52.246Z,13.05
2022-10-23T22:19:22.047Z,11.48
2022-10-23T22:21:51.056Z,12.65
2022-10-23T22:24:20.543Z,12.45
2022-10-23T22:26:50.629Z,11.65
2022-10-23T22:29:21.822Z,11.68
2022-10-23T22:31:50.249Z,9.48
2022-10-23T22:34:33.932Z,9.52
2022-10-23T22:37:08.575Z,8.30
2022-10-23T22:39:37.942Z,8.75
2022-10-23T22:42:06.209Z,6.70
2022-10-23T22:44:34.036Z,7.40
2022-10-23T22:47:02.277Z,7.47
2022-10-23T22:49:30.358Z,9.00
2022-10-23T22:51:58.145Z,7.30
2022-10-23T22:54:26.274Z,6.40
2022-10-23T22:56:55.719Z,7.15
2022-10-23T22:59:23.797Z,6.55
2022-10-23T23:01:52.052Z,6.30
2022-10-23T23:07:09.880Z,6.03
2022-10-23T23:09:39.703Z,5.95
2022-10-23T23:12:11.382Z,7.07
2022-10-23T23:14:39.613Z,5.68
2022-10-23T23:17:08.245Z,5.93
2022-10-23T23:19:36.576Z,5.85
2022-10-23T23:22:04.697Z,6.93
2022-10-23T23:24:33.439Z,5.80
2022-10-23T23:27:01.237Z,5.32
2022-10-23T23:29:31.130Z,5.03
2022-10-23T23:31:59.101Z,5.43
2022-10-23T23:34:27.064Z,4.90
2022-10-23T23:36:55.452Z,5.25
2022-10-23T23:39:23.861Z,5.50
2022-10-23T23:41:52.055Z,4.75
2022-10-23T23:44:19.855Z,4.80
2022-10-23T23:46:49.281Z,4.32
2022-10-23T23:49:17.215Z,4.60
2022-10-23T23:51:45.244Z,4.43
2022-10-23T23:54:13.179Z,4.00
2022-10-23T23:56:41.112Z,4.38
2022-10-23T23:59:09.210Z,4.13
